createdAt,value
2023-04-12T00:01:53.945Z,2.80
2023-04-12T00:04:22.839Z,2.88
2023-04-12T00:06:49.505Z,3.03
2023-04-12T00:09:16.083Z,2.35
2023-04-12T00:11:42.756Z,3.07
2023-04-12T00:14:09.405Z,2.97
2023-04-12T00:16:37.172Z,2.72
2023-04-12T00:19:04.125Z,2.35
2023-04-12T00:21:30.693Z,3.50
2023-04-12T00:23:57.457Z,2.53
2023-04-12T00:26:25.571Z,3.35
2023-04-12T00:28:52.124Z,2.80
2023-04-12T00:31:18.643Z,2.63
2023-04-12T00:33:46.116Z,2.80
2023-04-12T00:36:12.660Z,2.72
2023-04-12T00:38:40.247Z,5.33
2023-04-12T00:41:07.007Z,2.72
2023-04-12T00:43:33.800Z,2.40
2023-04-12T00:46:01.949Z,2.65
2023-04-12T00:48:28.945Z,2.50
2023-04-12T00:50:55.891Z,2.20
2023-04-12T00:53:25.324Z,2.00
2023-04-12T00:55:53.006Z,2.40
2023-04-12T00:58:22.355Z,2.00
2023-04-12T01:00:53.118Z,2.45
2023-04-12T01:03:24.408Z,2.60
2023-04-12T01:06:21.953Z,2.10
2023-04-12T01:09:07.172Z,2.10
2023-04-12T01:11:48.540Z,2.13
2023-04-12T01:14:37.096Z,1.90
2023-04-12T01:17:07.239Z,1.80
2023-04-12T01:19:54.287Z,2.47
2023-04-12T01:22:31.529Z,2.15
2023-04-12T01:25:13.779Z,1.73
2023-04-12T01:27:48.374Z,1.80
2023-04-12T01:30:18.513Z,2.25
2023-04-12T01:32:50.795Z,2.25
2023-04-12T01:35:22.820Z,1.70
2023-04-12T01:37:49.651Z,2.20
2023-04-12T01:40:18.490Z,3.00
2023-04-12T01:42:45.134Z,2.10
2023-04-12T01:45:11.813Z,1.90
2023-04-12T01:47:38.726Z,2.50
2023-04-12T01:50:28.267Z,2.42
2023-04-12T01:53:17.398Z,2.00
2023-04-12T01:55:48.482Z,2.17
2023-04-12T01:58:19.891Z,2.65
2023-04-12T02:00:47.399Z,2.20
2023-04-12T02:05:41.714Z,2.50
2023-04-12T02:08:08.818Z,2.28
2023-04-12T02:10:36.948Z,1.90
2023-04-12T02:13:04.211Z,2.28
2023-04-12T02:15:31.321Z,2.67
2023-04-12T02:17:59.702Z,2.45
2023-04-12T02:20:27.290Z,2.47
2023-04-12T02:25:21.477Z,2.60
2023-04-12T02:27:48.978Z,2.03
2023-04-12T02:32:45.797Z,2.47
2023-04-12T02:35:14.292Z,2.65
2023-04-12T02:37:41.188Z,3.00
2023-04-12T02:40:10.268Z,3.25
2023-04-12T02:42:36.983Z,3.45
2023-04-12T02:45:04.821Z,3.10
2023-04-12T02:47:31.307Z,3.33
2023-04-12T02:49:58.134Z,3.42
2023-04-12T02:52:24.706Z,3.65
2023-04-12T02:54:51.502Z,3.33
2023-04-12T02:57:21.168Z,3.40
2023-04-12T02:59:48.848Z,3.25
2023-04-12T03:02:15.506Z,3.33
2023-04-12T03:04:42.205Z,3.47
2023-04-12T03:07:08.788Z,3.30
2023-04-12T03:09:35.316Z,3.23
2023-04-12T03:12:04.210Z,3.10
2023-04-12T03:14:30.993Z,3.70
2023-04-12T03:16:58.500Z,3.35
2023-04-12T03:19:25.058Z,3.20
2023-04-12T03:21:51.549Z,3.53
2023-04-12T03:24:18.051Z,3.20
2023-04-12T03:26:44.451Z,2.42
2023-04-12T03:29:11.402Z,2.58
2023-04-12T03:31:38.065Z,3.22
2023-04-12T03:34:04.750Z,2.50
2023-04-12T03:36:31.349Z,3.47
2023-04-12T03:38:57.912Z,2.77
2023-04-12T03:41:28.565Z,2.72
2023-04-12T03:43:55.206Z,2.63
2023-04-12T03:46:22.005Z,2.63
2023-04-12T03:48:49.586Z,2.77
2023-04-12T03:53:42.829Z,2.10
2023-04-12T03:56:09.492Z,1.80
2023-04-12T03:58:36.881Z,2.97
2023-04-12T04:01:06.073Z,1.83
2023-04-12T04:03:36.015Z,2.00
2023-04-12T04:06:03.230Z,1.70
2023-04-12T04:08:32.601Z,2.35
2023-04-12T04:11:00.082Z,1.90
2023-04-12T04:16:00.596Z,1.65
2023-04-12T04:18:27.243Z,2.10
2023-04-12T04:20:53.786Z,2.33
2023-04-12T04:23:24.106Z,2.38
2023-04-12T04:25:53.349Z,1.90
2023-04-12T04:28:19.844Z,2.03
2023-04-12T04:30:46.320Z,1.90
2023-04-12T04:33:13.322Z,1.40
2023-04-12T04:35:40.905Z,2.22
2023-04-12T04:40:37.237Z,2.13
2023-04-12T04:43:04.467Z,2.20
2023-04-12T04:45:32.659Z,1.52
2023-04-12T04:47:59.405Z,1.88
2023-04-12T04:50:28.207Z,1.90
2023-04-12T04:52:54.751Z,2.08
2023-04-12T04:55:21.868Z,2.15
2023-04-12T04:57:48.673Z,1.80
2023-04-12T05:00:16.489Z,1.70
2023-04-12T05:05:13.408Z,2.20
2023-04-12T05:07:45.589Z,2.03
2023-04-12T05:10:12.074Z,1.83
2023-04-12T05:12:38.472Z,1.90
2023-04-12T05:15:11.689Z,2.20
2023-04-12T05:17:46.480Z,2.35
2023-04-12T05:20:13.317Z,2.08
2023-04-12T05:22:40.049Z,1.67
2023-04-12T05:25:07.065Z,2.15
2023-04-12T05:27:33.844Z,2.13
2023-04-12T05:30:00.399Z,1.77
2023-04-12T05:32:28.023Z,1.70
2023-04-12T05:34:56.018Z,1.90
2023-04-12T05:37:22.492Z,1.67
2023-04-12T05:39:48.974Z,1.80
2023-04-12T05:42:16.190Z,1.80
2023-04-12T05:47:20.082Z,1.83
2023-04-12T05:49:58.109Z,2.17
2023-04-12T05:52:33.098Z,1.50
2023-04-12T05:54:59.847Z,1.60
2023-04-12T05:57:27.680Z,1.60
2023-04-12T06:00:02.261Z,1.92
2023-04-12T06:02:29.920Z,1.92
2023-04-12T06:04:56.916Z,1.90
2023-04-12T06:07:23.470Z,1.80
2023-04-12T06:09:52.552Z,2.10
2023-04-12T06:12:18.982Z,2.00
2023-04-12T06:14:46.567Z,1.90
2023-04-12T06:17:13.346Z,2.30
2023-04-12T06:19:40.453Z,1.80
2023-04-12T06:22:08.941Z,2.10
2023-04-12T06:24:35.386Z,1.92
2023-04-12T06:27:02.495Z,1.80
2023-04-12T06:29:28.934Z,2.05
2023-04-12T06:32:00.273Z,1.98
2023-04-12T06:34:26.676Z,2.25
2023-04-12T06:36:53.157Z,2.42
2023-04-12T06:39:19.613Z,1.98
2023-04-12T06:41:50.443Z,2.00
2023-04-12T06:44:16.934Z,2.00
2023-04-12T06:46:49.153Z,2.63
2023-04-12T06:49:15.629Z,2.30
2023-04-12T06:51:43.033Z,2.00
2023-04-12T06:54:09.496Z,2.17
2023-04-12T06:56:39.604Z,2.70
2023-04-12T06:59:06.518Z,2.33
2023-04-12T07:01:33.062Z,2.80
2023-04-12T07:03:59.618Z,2.83
2023-04-12T07:06:28.396Z,2.50
2023-04-12T07:08:55.097Z,3.08
2023-04-12T07:11:24.737Z,2.72
2023-04-12T07:13:51.613Z,2.75
2023-04-12T07:16:18.718Z,3.00
2023-04-12T07:18:45.303Z,3.53
2023-04-12T07:21:17.304Z,3.47
2023-04-12T07:23:47.506Z,3.17
2023-04-12T07:26:13.957Z,3.90
2023-04-12T07:28:40.461Z,4.32
2023-04-12T07:31:07.627Z,3.78
2023-04-12T07:33:36.018Z,3.75
2023-04-12T07:36:11.143Z,4.22
2023-04-12T07:38:43.921Z,4.47
2023-04-12T07:41:10.393Z,4.28
2023-04-12T07:43:36.811Z,4.38
2023-04-12T07:46:07.771Z,4.80
2023-04-12T07:48:38.553Z,4.68
2023-04-12T07:51:12.013Z,5.70
2023-04-12T07:53:38.764Z,5.10
2023-04-12T07:56:11.361Z,5.10
2023-04-12T07:58:37.886Z,5.53
2023-04-12T08:01:04.526Z,5.47
2023-04-12T08:03:31.452Z,6.17
2023-04-12T08:05:58.126Z,5.93
2023-04-12T08:08:24.737Z,6.17
2023-04-12T08:11:03.220Z,6.10
2023-04-12T08:13:29.939Z,5.80
2023-04-12T08:15:56.393Z,6.65
2023-04-12T08:18:23.130Z,5.90
2023-04-12T08:20:49.710Z,6.35
2023-04-12T08:23:19.454Z,6.95
2023-04-12T08:25:46.021Z,6.72
2023-04-12T08:28:12.587Z,6.40
2023-04-12T08:30:51.528Z,6.50
2023-04-12T08:33:18.016Z,7.03
2023-04-12T08:35:44.881Z,7.00
2023-04-12T08:38:11.472Z,6.93
2023-04-12T08:40:38.574Z,6.90
2023-04-12T08:43:13.080Z,7.60
2023-04-12T08:45:43.068Z,7.05
2023-04-12T08:48:11.398Z,7.82
2023-04-12T08:50:37.867Z,7.65
2023-04-12T08:53:04.416Z,8.52
2023-04-12T08:55:30.991Z,8.52
2023-04-12T08:57:58.821Z,9.63
2023-04-12T09:00:26.375Z,8.73
2023-04-12T09:05:29.030Z,8.30
2023-04-12T09:07:55.611Z,8.88
2023-04-12T09:10:37.093Z,9.30
2023-04-12T09:13:06.556Z,9.10
2023-04-12T09:15:49.301Z,9.90
2023-04-12T09:18:17.581Z,9.30
2023-04-12T09:20:44.188Z,8.95
2023-04-12T09:23:19.349Z,5.20
2023-04-12T09:25:48.296Z,5.32
2023-04-12T09:28:26.662Z,5.20
2023-04-12T09:30:59.055Z,4.47
2023-04-12T09:33:39.432Z,4.00
2023-04-12T09:36:14.630Z,3.08
2023-04-12T09:39:00.892Z,3.78
2023-04-12T09:41:33.111Z,3.60
2023-04-12T09:44:01.313Z,3.00
2023-04-12T09:46:30.343Z,3.63
2023-04-12T09:48:59.462Z,2.90
2023-04-12T09:51:33.833Z,3.33
2023-04-12T09:54:02.365Z,3.28
2023-04-12T09:56:32.195Z,3.30
2023-04-12T09:59:07.203Z,2.65
2023-04-12T10:01:40.087Z,2.90
2023-04-12T10:04:08.275Z,2.30
2023-04-12T10:06:36.802Z,2.58
2023-04-12T10:09:04.402Z,2.78
2023-04-12T10:11:32.240Z,2.55
2023-04-12T10:14:07.081Z,2.67
2023-04-12T10:16:40.416Z,2.50
2023-04-12T10:19:09.950Z,2.90
2023-04-12T10:21:37.566Z,2.08
2023-04-12T10:24:10.702Z,2.30
2023-04-12T10:26:42.457Z,2.80
2023-04-12T10:29:26.096Z,2.58
2023-04-12T10:31:56.460Z,2.60
2023-04-12T10:34:31.162Z,3.20
2023-04-12T10:36:59.813Z,2.70
2023-04-12T10:39:40.225Z,2.10
2023-04-12T10:42:19.906Z,2.38
2023-04-12T10:44:48.456Z,2.53
2023-04-12T10:47:15.687Z,2.42
2023-04-12T10:50:20.782Z,2.60
2023-04-12T10:53:21.734Z,3.05
2023-04-12T10:55:49.033Z,2.45
2023-04-12T10:58:49.721Z,2.63
2023-04-12T11:01:19.596Z,2.50
2023-04-12T11:04:05.846Z,2.38
2023-04-12T11:06:59.913Z,2.17
2023-04-12T11:09:37.415Z,1.90
2023-04-12T11:12:03.860Z,2.92
2023-04-12T11:14:46.846Z,2.83
2023-04-12T11:17:15.998Z,2.22
2023-04-12T11:19:46.237Z,3.78
2023-04-12T11:22:15.383Z,2.58
2023-04-12T11:24:53.535Z,2.58
2023-04-12T11:27:21.781Z,3.10
2023-04-12T11:29:50.819Z,2.55
2023-04-12T11:32:17.676Z,2.55
2023-04-12T11:34:51.219Z,2.47
2023-04-12T11:37:23.066Z,2.70
2023-04-12T11:39:55.284Z,2.45
2023-04-12T11:42:26.512Z,2.38
2023-04-12T11:44:58.902Z,2.22
2023-04-12T11:47:28.091Z,2.78
2023-04-12T11:49:58.586Z,2.50
2023-04-12T11:52:30.609Z,2.53
2023-04-12T11:55:01.055Z,2.65
2023-04-12T11:57:28.917Z,2.65
2023-04-12T12:00:00.986Z,3.95
2023-04-12T12:02:32.365Z,3.00
2023-04-12T12:05:07.895Z,3.25
2023-04-12T12:07:35.827Z,3.20
2023-04-12T12:10:02.511Z,3.58
2023-04-12T12:12:29.036Z,2.97
2023-04-12T12:14:59.696Z,3.47
2023-04-12T12:17:27.714Z,2.90
2023-04-12T12:20:04.725Z,2.35
2023-04-12T12:22:31.555Z,3.38
2023-04-12T12:24:59.869Z,3.00
2023-04-12T12:27:38.782Z,2.67
2023-04-12T12:30:11.374Z,3.42
2023-04-12T12:32:39.953Z,2.97
2023-04-12T12:35:11.218Z,2.75
2023-04-12T12:37:37.866Z,3.25
2023-04-12T12:40:14.089Z,2.45
2023-04-12T12:42:59.308Z,2.75
2023-04-12T12:45:28.378Z,2.22
2023-04-12T12:48:05.359Z,1.80
2023-04-12T12:50:34.447Z,2.40
2023-04-12T12:53:02.798Z,2.17
2023-04-12T12:55:31.185Z,3.00
2023-04-12T12:58:06.621Z,2.55
2023-04-12T13:00:37.257Z,2.53
2023-04-12T13:03:05.322Z,2.08
2023-04-12T13:05:32.041Z,2.20
2023-04-12T13:08:00.016Z,2.83
2023-04-12T13:10:27.633Z,2.15
2023-04-12T13:12:54.667Z,2.92
2023-04-12T13:15:23.588Z,2.90
2023-04-12T13:17:54.766Z,2.72
2023-04-12T13:20:24.951Z,2.83
2023-04-12T13:22:53.944Z,3.20
2023-04-12T13:25:25.663Z,3.65
2023-04-12T13:27:52.789Z,3.63
2023-04-12T13:30:19.954Z,3.47
2023-04-12T13:32:47.535Z,3.20
2023-04-12T13:35:14.150Z,3.53
2023-04-12T13:37:42.616Z,3.07
2023-04-12T13:40:09.724Z,2.42
2023-04-12T13:42:36.248Z,2.47
2023-04-12T13:45:04.061Z,2.53
2023-04-12T13:47:31.380Z,2.88
2023-04-12T13:52:24.246Z,2.90
2023-04-12T13:54:51.559Z,2.67
2023-04-12T13:57:25.135Z,2.47
2023-04-12T13:59:51.642Z,2.80
2023-04-12T14:02:19.324Z,2.70
2023-04-12T14:04:55.390Z,3.17
2023-04-12T14:07:22.780Z,2.58
2023-04-12T14:09:50.551Z,3.00
2023-04-12T14:12:22.760Z,2.45
2023-04-12T14:14:49.230Z,2.53
2023-04-12T14:17:16.221Z,2.70
2023-04-12T14:19:44.003Z,2.65
2023-04-12T14:22:11.460Z,2.30
2023-04-12T14:27:06.868Z,2.78
2023-04-12T14:29:33.675Z,2.28
2023-04-12T14:32:01.118Z,3.17
2023-04-12T14:36:55.065Z,2.60
2023-04-12T14:39:24.146Z,1.80
2023-04-12T14:41:50.732Z,2.10
2023-04-12T14:44:20.015Z,1.77
2023-04-12T14:46:55.550Z,1.80
2023-04-12T14:49:22.205Z,2.05
2023-04-12T14:51:57.153Z,1.43
2023-04-12T14:54:24.075Z,1.35
2023-04-12T14:56:56.139Z,2.43
2023-04-12T14:59:27.446Z,1.38
2023-04-12T15:01:54.551Z,2.00
2023-04-12T15:04:22.281Z,1.80
2023-04-12T15:06:52.732Z,2.10
2023-04-12T15:09:21.582Z,2.60
2023-04-12T15:11:55.807Z,2.38
2023-04-12T15:14:25.379Z,1.75
2023-04-12T15:16:51.955Z,2.28
2023-04-12T15:19:22.839Z,1.80
2023-04-12T15:21:55.512Z,2.30
2023-04-12T15:24:23.272Z,2.85
2023-04-12T15:26:53.139Z,2.70
2023-04-12T15:29:24.690Z,2.47
2023-04-12T15:31:51.677Z,3.22
2023-04-12T15:34:25.085Z,3.00
2023-04-12T15:36:52.007Z,2.70
2023-04-12T15:39:28.078Z,3.92
2023-04-12T15:41:54.522Z,3.08
2023-04-12T15:44:22.608Z,2.80
2023-04-12T15:47:09.893Z,3.33
2023-04-12T15:49:39.284Z,4.55
2023-04-12T15:52:12.956Z,3.90
2023-04-12T15:54:43.529Z,3.47
2023-04-12T15:57:11.493Z,3.05
2023-04-12T16:02:08.855Z,3.97
2023-04-12T16:04:43.169Z,3.63
2023-04-12T16:07:09.692Z,3.38
2023-04-12T16:09:38.682Z,3.17
2023-04-12T16:12:05.381Z,3.13
2023-04-12T16:14:32.362Z,3.20
2023-04-12T16:16:59.139Z,3.03
2023-04-12T16:19:28.255Z,3.88
2023-04-12T16:21:54.846Z,3.92
2023-04-12T16:24:23.338Z,2.73
2023-04-12T16:26:53.224Z,1.17
2023-04-12T16:29:22.241Z,1.00
2023-04-12T16:31:48.803Z,0.90
2023-04-12T16:34:16.357Z,1.33
2023-04-12T16:36:43.571Z,1.23
2023-04-12T16:39:12.022Z,1.67
2023-04-12T16:41:39.496Z,1.15
2023-04-12T16:44:18.669Z,1.20
2023-04-12T16:46:46.568Z,1.30
2023-04-12T16:49:13.109Z,1.00
2023-04-12T16:51:39.525Z,0.93
2023-04-12T16:54:05.956Z,1.23
2023-04-12T16:56:32.378Z,1.00
2023-04-12T16:59:00.032Z,1.08
2023-04-12T17:01:26.793Z,1.38
2023-04-12T17:03:53.358Z,1.27
2023-04-12T17:06:37.537Z,1.60
2023-04-12T17:09:06.704Z,1.60
2023-04-12T17:14:00.389Z,1.45
2023-04-12T17:18:54.025Z,1.48
2023-04-12T17:21:20.496Z,1.70
2023-04-12T17:23:50.390Z,1.83
2023-04-12T17:26:27.333Z,1.17
2023-04-12T17:29:02.375Z,1.20
2023-04-12T17:34:01.217Z,1.98
2023-04-12T17:36:31.445Z,1.98
2023-04-12T17:39:04.840Z,1.30
2023-04-12T17:41:31.563Z,1.25
2023-04-12T17:43:59.422Z,1.55
2023-04-12T17:46:38.037Z,1.60
2023-04-12T17:49:14.373Z,1.50
2023-04-12T17:51:40.877Z,1.85
2023-04-12T17:54:08.593Z,1.70
2023-04-12T17:56:36.598Z,1.98
2023-04-12T17:59:06.277Z,1.58
2023-04-12T18:01:40.054Z,1.48
2023-04-12T18:04:07.476Z,1.73
2023-04-12T18:06:34.045Z,1.48
2023-04-12T18:09:01.453Z,1.40
2023-04-12T18:11:27.965Z,1.80
2023-04-12T18:13:54.449Z,1.30
2023-04-12T18:16:20.919Z,1.60
2023-04-12T18:18:47.543Z,1.33
2023-04-12T18:21:16.093Z,2.00
2023-04-12T18:23:42.737Z,1.63
2023-04-12T18:26:09.328Z,1.27
2023-04-12T18:28:40.779Z,1.77
2023-04-12T18:31:08.739Z,1.83
2023-04-12T18:33:35.358Z,1.70
2023-04-12T18:36:04.115Z,1.50
2023-04-12T18:38:32.659Z,1.73
2023-04-12T18:40:59.819Z,1.60
2023-04-12T18:43:27.391Z,1.77
2023-04-12T18:48:22.695Z,2.30
2023-04-12T18:50:51.868Z,2.17
2023-04-12T18:53:20.567Z,2.40
2023-04-12T18:55:48.133Z,2.20
2023-04-12T19:00:42.362Z,2.20
2023-04-12T19:03:11.466Z,2.50
2023-04-12T19:05:44.211Z,2.50
2023-04-12T19:08:16.267Z,2.40
2023-04-12T19:10:48.919Z,2.38
2023-04-12T19:13:15.479Z,1.90
2023-04-12T19:15:42.233Z,3.25
2023-04-12T19:18:08.730Z,2.35
2023-04-12T19:20:35.160Z,3.67
2023-04-12T19:23:02.093Z,2.33
2023-04-12T19:25:31.506Z,2.00
2023-04-12T19:27:59.289Z,2.10
2023-04-12T19:30:26.663Z,1.73
2023-04-12T19:32:53.653Z,2.08
2023-04-12T19:35:20.134Z,2.03
2023-04-12T19:37:47.063Z,1.98
2023-04-12T19:40:13.774Z,1.80
2023-04-12T19:42:41.505Z,2.20
2023-04-12T19:45:09.706Z,2.20
2023-04-12T19:47:36.696Z,1.77
2023-04-12T19:50:04.381Z,2.05
2023-04-12T19:54:57.970Z,1.95
2023-04-12T19:57:25.452Z,2.20
2023-04-12T19:59:51.957Z,2.70
2023-04-12T20:02:19.470Z,2.38
2023-04-12T20:04:45.993Z,2.72
2023-04-12T20:07:12.617Z,2.65
2023-04-12T20:09:39.986Z,2.25
2023-04-12T20:12:07.160Z,3.28
2023-04-12T20:14:35.869Z,2.58
2023-04-12T20:17:05.840Z,2.67
2023-04-12T20:19:33.526Z,2.40
2023-04-12T20:24:30.315Z,2.40
2023-04-12T20:27:02.164Z,2.65
2023-04-12T20:29:33.401Z,2.30
2023-04-12T20:32:00.006Z,2.35
2023-04-12T20:34:26.816Z,2.53
2023-04-12T20:36:55.374Z,2.33
2023-04-12T20:39:25.345Z,2.30
2023-04-12T20:41:54.856Z,2.15
2023-04-12T20:44:21.561Z,2.20
2023-04-12T20:46:49.074Z,2.73
2023-04-12T20:49:15.673Z,2.17
2023-04-12T20:51:42.079Z,2.47
2023-04-12T20:54:09.663Z,2.30
2023-04-12T20:56:36.552Z,2.20
2023-04-12T20:59:03.044Z,2.47
2023-04-12T21:01:29.856Z,2.90
2023-04-12T21:04:00.559Z,2.78
2023-04-12T21:06:27.792Z,3.83
2023-04-12T21:08:54.230Z,3.42
2023-04-12T21:11:22.654Z,2.95
2023-04-12T21:13:49.688Z,3.50
2023-04-12T21:16:16.278Z,3.55
2023-04-12T21:18:42.780Z,3.72
2023-04-12T21:21:09.420Z,4.00
2023-04-12T21:23:35.875Z,3.37
2023-04-12T21:26:02.595Z,3.42
2023-04-12T21:28:29.839Z,4.47
2023-04-12T21:30:58.200Z,4.35
2023-04-12T21:33:25.099Z,4.00
2023-04-12T21:35:54.458Z,4.07
2023-04-12T21:38:22.546Z,4.45
2023-04-12T21:40:49.585Z,5.00
2023-04-12T21:43:16.306Z,4.70
2023-04-12T21:45:42.836Z,4.57
2023-04-12T21:48:09.866Z,4.45
2023-04-12T21:50:37.657Z,5.07
2023-04-12T21:53:04.207Z,5.00
2023-04-12T21:55:30.833Z,4.90
2023-04-12T21:57:57.359Z,4.60
2023-04-12T22:00:24.899Z,4.57
2023-04-12T22:02:51.554Z,4.20
2023-04-12T22:05:18.274Z,4.60
2023-04-12T22:07:45.738Z,4.43
2023-04-12T22:10:14.844Z,3.97
2023-04-12T22:12:41.346Z,3.83
2023-04-12T22:15:09.160Z,3.38
2023-04-12T22:17:37.874Z,2.83
2023-04-12T22:20:07.675Z,2.97
2023-04-12T22:22:34.704Z,3.22
2023-04-12T22:25:01.621Z,2.40
2023-04-12T22:27:28.392Z,3.03
2023-04-12T22:29:54.867Z,2.30
2023-04-12T22:32:21.984Z,2.28
2023-04-12T22:34:58.011Z,2.33
2023-04-12T22:37:34.919Z,2.20
2023-04-12T22:40:11.855Z,2.42
2023-04-12T22:42:47.774Z,2.63
2023-04-12T22:45:16.791Z,2.55
2023-04-12T22:47:44.730Z,2.55
2023-04-12T22:50:12.821Z,2.10
2023-04-12T22:52:40.431Z,3.13
2023-04-12T22:57:36.208Z,2.90
2023-04-12T23:00:05.665Z,2.83
2023-04-12T23:02:33.623Z,3.25
2023-04-12T23:05:02.396Z,3.05
2023-04-12T23:07:29.896Z,2.50
2023-04-12T23:09:57.420Z,2.88
2023-04-12T23:12:24.514Z,2.50
2023-04-12T23:14:51.134Z,2.40
2023-04-12T23:17:19.681Z,2.55
2023-04-12T23:19:47.297Z,2.42
2023-04-12T23:22:44.288Z,2.55
2023-04-12T23:25:23.728Z,2.45
2023-04-12T23:27:51.004Z,2.17
2023-04-12T23:30:18.072Z,2.10
2023-04-12T23:32:44.645Z,2.00
2023-04-12T23:35:12.239Z,2.15
2023-04-12T23:40:14.214Z,1.63
2023-04-12T23:42:41.907Z,1.80
2023-04-12T23:45:10.746Z,1.80
2023-04-12T23:47:37.433Z,1.90
2023-04-12T23:50:05.877Z,2.00
2023-04-12T23:52:32.528Z,2.13
2023-04-12T23:54:59.782Z,1.90
2023-04-12T23:57:26.412Z,1.63
2023-04-12T23:59:52.969Z,2.00
